PORT of AARHUS

ประเทศ: Denmark ประเทศ: Denmark (DK)
แลตติจูด/ลองกิจูด: 56.154° / 10.2295° แสดงบนแผนที่ แสดงบนแผนที่
เวลาท้องถิ่น:  UTC +2
UN/LOCODE: DKAAR
เรือทีอยู่ในท่า: 6
เวลาถึงที่คาดหมาย: 9

เวลาถึง/ออกเดินทางล่าสุด


ชื่อเรือ
เวลาถึง (UTC)
เวลาถึง (LT)
ออกเดินทาง (UTC)
ออกเดินทาง (LT)
Vessel Type: เรือความเร็วสูง  KATEXPRESS 2 2014-09-21 20:33:00 2014-09-21 22:33:00
Vessel Type: เรือทัก, เรือพนักงานนำร่อง, ฯลฯ  HDMS ROTA 2014-09-21 13:48:00 2014-09-21 15:48:00 2014-09-21 19:42:00 2014-09-21 21:42:00
Vessel Type: เรือทัก, เรือพนักงานนำร่อง, ฯลฯ  BALTIC 2014-09-21 18:26:00 2014-09-21 20:26:00
Vessel Type: เรือความเร็วสูง  KATEXPRESS 2 2014-09-21 16:58:00 2014-09-21 18:58:00 2014-09-21 17:53:00 2014-09-21 19:53:00
Vessel Type: เรือความเร็วสูง  KATEXPRESS 1 2014-09-21 15:30:00 2014-09-21 17:30:00 2014-09-21 16:24:00 2014-09-21 18:24:00
Vessel Type: เรือบรรทุกท้ำมัน  ALCEDO 2014-09-21 14:40:00 2014-09-21 16:40:00
Vessel Type: เรือทัก, เรือพนักงานนำร่อง, ฯลฯ  AARHUS PILOT 2014-09-21 14:37:00 2014-09-21 16:37:00
Vessel Type: เรือทัก, เรือพนักงานนำร่อง, ฯลฯ  AARHUS PILOT 2014-09-20 03:42:00 2014-09-20 05:42:00 2014-09-21 14:27:00 2014-09-21 16:27:00
Vessel Type: เรือยอร์ชและเรืออื่นๆ  JOHANNE II 2014-09-21 11:53:00 2014-09-21 13:53:00 2014-09-21 12:05:00 2014-09-21 14:05:00
Vessel Type: เรือทัก, เรือพนักงานนำร่อง, ฯลฯ  BALTIC 2014-09-21 02:48:00 2014-09-21 04:48:00 2014-09-21 11:49:00 2014-09-21 13:49:00

เวลาถึงที่คาดหมาย


ชื่อเรือ
Scheduled Arrival (UTC)
เวลาถึงที่วางไว้ (เวลาท้องถิ่น)
เวลาถึงโดยประมาณ (UTC)
เวลาถึงโดยประมาณ (เวลาท้องถิ่น)
Vessel Type: เรือสินค้า  FINNPULP 2014-09-22 04:00:00 2014-09-22 06:00:00 2014-09-22 16:57:00 2014-09-22 18:57:00
Vessel Type: เรือสินค้า  IDA RAMBOW 2014-09-22 05:00:00 2014-09-22 07:00:00 2014-09-22 06:10:00 2014-09-22 08:10:00
Vessel Type: เรือสินค้า  MAGLEBY MAERSK 2014-09-22 06:30:00 2014-09-22 08:30:00 2014-09-22 06:04:00 2014-09-22 08:04:00
Vessel Type: เรือทัก, เรือพนักงานนำร่อง, ฯลฯ  ASTERIX 2014-09-22 07:00:00 2014-09-22 09:00:00 2014-09-22 03:40:00 2014-09-22 05:40:00
Vessel Type: เรือสินค้า  RIX STAR 2014-09-22 07:00:00 2014-09-22 09:00:00 2014-09-22 01:18:00 2014-09-22 03:18:00
Vessel Type: เรือสินค้า  SYLVE 2014-09-22 11:00:00 2014-09-22 13:00:00 2014-09-22 20:09:00 2014-09-22 22:09:00
SAMSON 2014-09-22 12:04:00 2014-09-22 14:04:00 2014-09-22 03:27:00 2014-09-22 05:27:00
Vessel Type: เรือสินค้า  ATLANTIC COAST 2014-09-23 01:00:00 2014-09-23 03:00:00 2014-09-22 19:55:00 2014-09-22 21:55:00
Vessel Type: เรือสินค้า  DIAMOND QUEEN 2014-10-05 20:15:00 2014-10-05 22:15:00

Wind Forecast


    
เวลา (UTC)
ความเร็ว
Direction
Temperature
2014-09-21 21:00:00 16 knots 309° 14°C
2014-09-22 00:00:00 16 knots 358° 14°C
2014-09-22 03:00:00 24 knots 352° 13°C
2014-09-22 06:00:00 24 knots 354° 12°C
2014-09-22 09:00:00 24 knots 12°C
2014-09-22 12:00:00 22 knots 13°C
2014-09-22 15:00:00 19 knots 14°C
2014-09-22 18:00:00 17 knots 355° 13°C
2014-09-22 21:00:00 13 knots 345° 12°C
2014-09-23 00:00:00 10 knots 336° 11°C
2014-09-23 03:00:00 8 knots 329° 10°C
2014-09-23 06:00:00 4 knots 300° 10°C
2014-09-23 09:00:00 7 knots 220° 12°C
2014-09-23 12:00:00 11 knots 232° 14°C
2014-09-23 15:00:00 13 knots 231° 16°C
2014-09-23 18:00:00 13 knots 237° 15°C